createdAt,value
2019-02-17T00:00:53.516Z,8.70
2019-02-17T00:01:54.532Z,8.80
2019-02-17T00:02:55.719Z,8.70
2019-02-17T00:03:56.868Z,8.70
2019-02-17T00:04:57.885Z,8.70
2019-02-17T00:05:59.038Z,8.70
2019-02-17T00:07:00.056Z,8.70
2019-02-17T00:08:01.083Z,8.70
2019-02-17T00:09:06.010Z,8.70
2019-02-17T00:10:07.037Z,8.70
2019-02-17T00:11:08.052Z,8.60
2019-02-17T00:12:09.061Z,8.60
2019-02-17T00:13:10.074Z,8.60
2019-02-17T00:14:11.100Z,8.60
2019-02-17T00:15:12.116Z,8.60
2019-02-17T00:16:13.140Z,8.60
2019-02-17T00:17:14.155Z,8.60
2019-02-17T00:18:15.201Z,8.60
2019-02-17T00:19:16.273Z,8.60
2019-02-17T00:20:17.276Z,8.60
2019-02-17T00:21:18.292Z,8.50
2019-02-17T00:22:19.300Z,8.50
2019-02-17T00:23:20.517Z,8.60
2019-02-17T00:24:22.195Z,8.50
2019-02-17T00:25:23.215Z,8.50
2019-02-17T00:26:24.564Z,8.50
2019-02-17T00:27:25.564Z,8.50
2019-02-17T00:28:26.572Z,8.50
2019-02-17T00:29:27.596Z,8.50
2019-02-17T00:30:28.726Z,8.50
2019-02-17T00:31:29.772Z,8.50
2019-02-17T00:32:30.779Z,8.40
2019-02-17T00:33:31.804Z,8.40
2019-02-17T00:34:32.918Z,8.40
2019-02-17T00:35:33.936Z,8.40
2019-02-17T00:36:34.961Z,8.40
2019-02-17T00:37:36.004Z,8.40
2019-02-17T00:38:37.111Z,8.40
2019-02-17T00:39:38.132Z,8.40
2019-02-17T00:40:39.184Z,8.40
2019-02-17T00:41:40.208Z,8.40
2019-02-17T00:42:41.244Z,8.40
2019-02-17T00:43:42.329Z,8.40
2019-02-17T00:44:43.452Z,8.40
2019-02-17T00:45:44.514Z,8.40
2019-02-17T00:46:45.640Z,8.40
2019-02-17T00:47:46.679Z,8.40
2019-02-17T00:48:47.708Z,8.40
2019-02-17T00:49:48.734Z,8.40
2019-02-17T00:50:50.003Z,8.30
2019-02-17T00:51:51.142Z,8.30
2019-02-17T00:52:52.161Z,8.40
2019-02-17T00:53:53.372Z,8.40
2019-02-17T00:54:54.391Z,8.40
2019-02-17T00:55:55.396Z,8.30
2019-02-17T00:56:56.752Z,8.30
2019-02-17T00:57:57.760Z,8.30
2019-02-17T00:58:58.769Z,8.30
2019-02-17T00:59:59.796Z,8.30
2019-02-17T01:01:00.820Z,8.30
2019-02-17T01:02:01.889Z,8.20
2019-02-17T01:03:03.134Z,8.20
2019-02-17T01:04:04.146Z,8.20
2019-02-17T01:05:05.369Z,8.20
2019-02-17T01:06:06.402Z,8.10
2019-02-17T01:07:07.447Z,8.10
2019-02-17T01:08:08.572Z,8.10
2019-02-17T01:09:09.588Z,8.10
2019-02-17T01:10:10.705Z,8.10
2019-02-17T01:11:11.976Z,8.10
2019-02-17T01:12:12.988Z,8.10
2019-02-17T01:13:14.099Z,8.10
2019-02-17T01:14:15.121Z,8.00
2019-02-17T01:15:16.129Z,8.00
2019-02-17T01:16:17.151Z,8.00
2019-02-17T01:17:18.160Z,8.00
2019-02-17T01:18:19.178Z,8.00
2019-02-17T01:19:20.189Z,8.00
2019-02-17T01:20:21.303Z,8.00
2019-02-17T01:21:22.316Z,8.00
2019-02-17T01:22:24.028Z,8.00
2019-02-17T01:23:25.373Z,8.00
2019-02-17T01:24:26.460Z,8.00
2019-02-17T01:25:27.472Z,8.10
2019-02-17T01:26:28.496Z,8.10
2019-02-17T01:27:29.507Z,8.00
2019-02-17T01:28:30.525Z,8.00
2019-02-17T01:29:31.560Z,7.90
2019-02-17T01:30:32.564Z,8.00
2019-02-17T01:31:33.648Z,7.90
2019-02-17T01:32:34.671Z,7.90
2019-02-17T01:33:35.721Z,7.90
2019-02-17T01:34:36.736Z,7.90
2019-02-17T01:35:37.756Z,7.90
2019-02-17T01:36:38.774Z,7.80
2019-02-17T01:37:39.850Z,7.80
2019-02-17T01:38:40.843Z,7.70
2019-02-17T01:39:50.246Z,7.70
2019-02-17T01:40:51.253Z,7.60
2019-02-17T01:41:52.284Z,7.60
2019-02-17T01:42:53.299Z,7.40
2019-02-17T01:43:54.353Z,7.40
2019-02-17T01:44:55.362Z,7.40
2019-02-17T01:45:56.396Z,7.40
2019-02-17T01:46:57.424Z,7.40
2019-02-17T01:47:58.432Z,7.40
2019-02-17T01:48:59.463Z,7.30
2019-02-17T01:50:00.468Z,7.30
2019-02-17T01:51:01.472Z,7.30
2019-02-17T01:52:02.491Z,7.30
2019-02-17T01:53:03.507Z,7.30
2019-02-17T01:54:04.552Z,7.30
2019-02-17T01:55:06.874Z,7.30
2019-02-17T01:56:07.893Z,7.30
2019-02-17T01:57:08.915Z,7.20
2019-02-17T01:58:09.931Z,7.20
2019-02-17T01:59:10.940Z,7.20
2019-02-17T02:00:14.365Z,7.20
2019-02-17T02:01:17.054Z,7.20
2019-02-17T02:02:18.461Z,7.20
2019-02-17T02:03:19.576Z,7.20
2019-02-17T02:04:20.677Z,7.20
2019-02-17T02:05:21.688Z,7.20
2019-02-17T02:06:22.821Z,7.20
2019-02-17T02:07:23.869Z,7.30
2019-02-17T02:08:24.884Z,7.30
2019-02-17T02:09:25.899Z,7.30
2019-02-17T02:10:26.922Z,7.30
2019-02-17T02:11:27.941Z,7.30
2019-02-17T02:12:29.061Z,7.40
2019-02-17T02:13:30.132Z,7.40
2019-02-17T02:14:31.148Z,7.40
2019-02-17T02:15:32.152Z,7.40
2019-02-17T02:16:33.168Z,7.40
2019-02-17T02:17:34.193Z,7.40
2019-02-17T02:18:35.232Z,7.40
2019-02-17T02:19:36.244Z,7.50
2019-02-17T02:20:37.260Z,7.50
2019-02-17T02:21:38.277Z,7.50
2019-02-17T02:22:39.612Z,7.50
2019-02-17T02:23:40.617Z,7.50
2019-02-17T02:24:41.631Z,7.50
2019-02-17T02:25:42.652Z,7.50
2019-02-17T02:26:43.664Z,7.50
2019-02-17T02:27:44.684Z,7.50
2019-02-17T02:28:45.706Z,7.50
2019-02-17T02:29:46.717Z,7.50
2019-02-17T02:30:47.734Z,7.50
2019-02-17T02:31:48.740Z,7.50
2019-02-17T02:32:49.796Z,7.50
2019-02-17T02:33:50.806Z,7.50
2019-02-17T02:34:51.824Z,7.50
2019-02-17T02:35:52.860Z,7.50
2019-02-17T02:36:53.893Z,7.50
2019-02-17T02:37:54.909Z,7.50
2019-02-17T02:38:55.920Z,7.40
2019-02-17T02:39:56.940Z,7.40
2019-02-17T02:40:57.945Z,7.40
2019-02-17T02:41:58.989Z,7.40
2019-02-17T02:43:00.020Z,7.40
2019-02-17T02:44:01.032Z,7.40
2019-02-17T02:45:03.749Z,7.40
2019-02-17T02:46:04.760Z,7.40
2019-02-17T02:47:05.804Z,7.40
2019-02-17T02:48:06.829Z,7.40
2019-02-17T02:49:07.848Z,7.30
2019-02-17T02:50:09.852Z,7.30
2019-02-17T02:51:10.889Z,7.30
2019-02-17T02:52:11.995Z,7.30
2019-02-17T02:53:13.082Z,7.30
2019-02-17T02:54:14.177Z,7.30
2019-02-17T02:55:15.172Z,7.30
2019-02-17T02:56:16.191Z,7.20
2019-02-17T02:57:17.229Z,7.20
2019-02-17T02:58:18.280Z,7.20
2019-02-17T02:59:19.343Z,7.20
2019-02-17T03:00:20.410Z,7.10
2019-02-17T03:01:21.444Z,7.10
2019-02-17T03:02:22.544Z,7.10
2019-02-17T03:03:23.573Z,7.10
2019-02-17T03:04:24.593Z,7.10
2019-02-17T03:05:25.605Z,7.00
2019-02-17T03:06:34.607Z,7.00
2019-02-17T03:07:35.643Z,7.00
2019-02-17T03:08:36.746Z,7.00
2019-02-17T03:09:37.800Z,7.00
2019-02-17T03:10:38.817Z,7.00
2019-02-17T03:11:39.852Z,7.00
2019-02-17T03:12:40.876Z,7.00
2019-02-17T03:13:41.900Z,7.00
2019-02-17T03:14:42.917Z,7.00
2019-02-17T03:15:43.930Z,7.00
2019-02-17T03:16:44.937Z,7.00
2019-02-17T03:17:45.960Z,7.00
2019-02-17T03:18:46.973Z,7.00
2019-02-17T03:19:48.005Z,7.00
2019-02-17T03:20:49.001Z,7.00
2019-02-17T03:21:50.036Z,7.00
2019-02-17T03:22:51.127Z,6.90
2019-02-17T03:23:52.154Z,6.90
2019-02-17T03:24:53.176Z,6.90
2019-02-17T03:25:54.182Z,6.90
2019-02-17T03:26:55.196Z,6.90
2019-02-17T03:27:56.215Z,6.90
2019-02-17T03:28:57.229Z,6.90
2019-02-17T03:30:05.120Z,6.80
2019-02-17T03:31:01.175Z,6.80
2019-02-17T03:32:02.190Z,6.80
2019-02-17T03:33:03.206Z,6.80
2019-02-17T03:34:04.225Z,6.80
2019-02-17T03:35:06.353Z,6.80
2019-02-17T03:36:07.395Z,6.80
2019-02-17T03:37:08.744Z,6.80
2019-02-17T03:38:09.757Z,6.80
2019-02-17T03:39:10.808Z,6.80
2019-02-17T03:40:11.940Z,6.80
2019-02-17T03:41:12.947Z,6.80
2019-02-17T03:42:13.965Z,6.80
2019-02-17T03:43:14.984Z,6.70
2019-02-17T03:44:16.059Z,6.80
2019-02-17T03:45:17.099Z,6.70
2019-02-17T03:46:18.100Z,6.80
2019-02-17T03:47:19.119Z,6.70
2019-02-17T03:48:20.243Z,6.70
2019-02-17T03:49:21.275Z,6.70
2019-02-17T03:50:22.283Z,6.70
2019-02-17T03:51:23.289Z,6.70
2019-02-17T03:52:24.297Z,6.70
2019-02-17T03:53:25.316Z,6.70
2019-02-17T03:54:26.362Z,6.60
2019-02-17T03:55:27.400Z,6.60
2019-02-17T03:56:28.412Z,6.60
2019-02-17T03:57:29.432Z,6.60
2019-02-17T03:58:30.513Z,6.60
2019-02-17T03:59:31.545Z,6.60
2019-02-17T04:00:32.621Z,6.60
2019-02-17T04:01:33.630Z,6.50
2019-02-17T04:02:34.639Z,6.50
2019-02-17T04:03:35.640Z,6.50
2019-02-17T04:04:36.682Z,6.50
2019-02-17T04:05:37.735Z,6.50
2019-02-17T04:06:38.731Z,6.50
2019-02-17T04:07:39.753Z,6.50
2019-02-17T04:08:40.804Z,6.50
2019-02-17T04:09:41.928Z,6.50
2019-02-17T04:10:42.941Z,6.50
2019-02-17T04:11:43.963Z,6.50
2019-02-17T04:12:44.980Z,6.40
2019-02-17T04:13:46.001Z,6.40
2019-02-17T04:14:47.056Z,6.40
2019-02-17T04:15:48.057Z,6.40
2019-02-17T04:16:49.072Z,6.40
2019-02-17T04:17:50.187Z,6.40
2019-02-17T04:18:51.201Z,6.40
2019-02-17T04:19:52.220Z,6.40
2019-02-17T04:20:53.240Z,6.40
2019-02-17T04:21:54.273Z,6.40
2019-02-17T04:22:55.275Z,6.30
2019-02-17T04:23:56.291Z,6.30
2019-02-17T04:24:57.322Z,6.30
2019-02-17T04:25:58.324Z,6.20
2019-02-17T04:26:59.340Z,6.10
2019-02-17T04:28:00.360Z,6.10
2019-02-17T04:29:01.443Z,6.10
2019-02-17T04:30:03.753Z,6.10
2019-02-17T04:31:04.755Z,6.00
2019-02-17T04:32:05.771Z,6.00
2019-02-17T04:33:06.787Z,6.10
2019-02-17T04:34:07.805Z,6.10
2019-02-17T04:35:08.853Z,6.10
2019-02-17T04:36:09.854Z,6.10
2019-02-17T04:37:10.863Z,6.20
2019-02-17T04:38:11.879Z,6.20
2019-02-17T04:39:12.887Z,6.20
2019-02-17T04:40:13.910Z,6.20
2019-02-17T04:41:14.924Z,6.20
2019-02-17T04:42:15.942Z,6.20
2019-02-17T04:43:16.980Z,6.20
2019-02-17T04:44:17.982Z,6.20
2019-02-17T04:45:19.000Z,6.20
2019-02-17T04:46:20.017Z,6.20
2019-02-17T04:47:21.033Z,6.30
2019-02-17T04:48:22.069Z,6.20
2019-02-17T04:49:23.082Z,6.20
2019-02-17T04:50:24.103Z,6.30
2019-02-17T04:51:25.117Z,6.20
2019-02-17T04:52:26.137Z,6.20
2019-02-17T04:53:27.455Z,6.20
2019-02-17T04:54:28.469Z,6.20
2019-02-17T04:55:29.491Z,6.20
2019-02-17T04:56:30.505Z,6.20
2019-02-17T04:57:31.541Z,6.20
2019-02-17T04:58:32.629Z,6.20
2019-02-17T04:59:33.640Z,6.30
2019-02-17T05:00:40.128Z,6.20
2019-02-17T05:01:37.697Z,6.30
2019-02-17T05:02:38.721Z,6.20
2019-02-17T05:03:39.779Z,6.20
2019-02-17T05:04:40.809Z,6.20
2019-02-17T05:05:41.871Z,6.20
2019-02-17T05:06:42.889Z,6.20
2019-02-17T05:07:43.924Z,6.10
2019-02-17T05:08:45.278Z,6.10
2019-02-17T05:09:46.290Z,6.00
2019-02-17T05:10:47.328Z,6.00
2019-02-17T05:11:48.328Z,6.00
2019-02-17T05:12:49.359Z,6.00
2019-02-17T05:13:50.352Z,6.00
2019-02-17T05:14:51.365Z,6.00
2019-02-17T05:15:52.400Z,5.90
2019-02-17T05:16:53.432Z,6.00
2019-02-17T05:17:54.450Z,6.00
2019-02-17T05:18:55.444Z,6.00
2019-02-17T05:19:56.456Z,6.00
2019-02-17T05:20:57.477Z,6.00
2019-02-17T05:21:58.493Z,6.00
2019-02-17T05:22:59.807Z,5.90
2019-02-17T05:24:00.816Z,5.90
2019-02-17T05:25:02.635Z,5.90
2019-02-17T05:26:03.717Z,5.90
2019-02-17T05:27:04.724Z,5.90
2019-02-17T05:28:05.743Z,5.90
2019-02-17T05:29:06.758Z,5.80
2019-02-17T05:30:09.573Z,5.80
2019-02-17T05:31:10.591Z,5.80
2019-02-17T05:32:11.619Z,5.90
2019-02-17T05:33:12.626Z,5.90
2019-02-17T05:34:13.904Z,5.90
2019-02-17T05:35:14.916Z,5.90
2019-02-17T05:36:15.939Z,5.90
2019-02-17T05:37:16.947Z,5.90
2019-02-17T05:38:17.961Z,5.90
2019-02-17T05:39:18.990Z,5.90
2019-02-17T05:40:20.007Z,5.80
2019-02-17T05:41:21.028Z,5.80
2019-02-17T05:42:22.050Z,5.80
2019-02-17T05:43:23.058Z,5.80
2019-02-17T05:44:24.065Z,5.80
2019-02-17T05:45:25.082Z,5.80
2019-02-17T05:46:26.109Z,5.80
2019-02-17T05:47:27.127Z,5.80
2019-02-17T05:48:29.408Z,5.80
2019-02-17T05:49:30.673Z,5.80
2019-02-17T05:50:31.690Z,5.70
2019-02-17T05:51:32.706Z,5.70
2019-02-17T05:52:33.720Z,5.70
2019-02-17T05:53:34.744Z,5.60
2019-02-17T05:54:35.768Z,5.50
2019-02-17T05:55:36.854Z,5.50
2019-02-17T05:56:37.930Z,5.40
2019-02-17T05:57:39.081Z,5.30
2019-02-17T05:58:40.091Z,5.30
2019-02-17T05:59:41.135Z,5.20
2019-02-17T06:00:42.143Z,5.20
2019-02-17T06:01:43.169Z,5.20
2019-02-17T06:02:44.182Z,5.10
2019-02-17T06:03:45.196Z,5.10
2019-02-17T06:04:46.292Z,5.10
2019-02-17T06:05:47.379Z,5.10
2019-02-17T06:06:48.400Z,5.10
2019-02-17T06:07:49.431Z,5.10
2019-02-17T06:08:50.463Z,5.10
2019-02-17T06:09:51.478Z,5.10
2019-02-17T06:10:52.490Z,5.10
2019-02-17T06:11:53.530Z,5.00
2019-02-17T06:12:54.633Z,4.90
2019-02-17T06:13:55.645Z,4.90
2019-02-17T06:14:56.657Z,4.90
2019-02-17T06:15:57.672Z,4.90
2019-02-17T06:16:58.799Z,4.90
2019-02-17T06:17:59.910Z,4.90
2019-02-17T06:19:00.925Z,5.00
2019-02-17T06:20:04.538Z,5.00
2019-02-17T06:21:05.561Z,5.00
2019-02-17T06:22:06.592Z,5.00
2019-02-17T06:23:07.605Z,5.00
2019-02-17T06:24:08.612Z,5.00
2019-02-17T06:25:09.659Z,5.00
2019-02-17T06:26:10.799Z,5.00
2019-02-17T06:27:11.823Z,5.00
2019-02-17T06:28:12.840Z,5.00
2019-02-17T06:29:13.848Z,5.00
2019-02-17T06:30:14.863Z,5.00
2019-02-17T06:31:15.875Z,4.90
2019-02-17T06:32:16.911Z,4.90
2019-02-17T06:33:17.916Z,4.90
2019-02-17T06:34:18.933Z,4.90
2019-02-17T06:35:19.947Z,5.00
2019-02-17T06:36:20.961Z,5.00
2019-02-17T06:37:22.084Z,5.10
2019-02-17T06:38:23.110Z,5.10
2019-02-17T06:39:24.128Z,5.00
2019-02-17T06:40:25.148Z,5.00
2019-02-17T06:41:26.166Z,5.00
2019-02-17T06:42:27.191Z,5.00
2019-02-17T06:43:28.195Z,5.00
2019-02-17T06:44:29.208Z,5.00
2019-02-17T06:45:30.218Z,5.00
2019-02-17T06:46:33.142Z,5.10
2019-02-17T06:47:34.700Z,5.10
2019-02-17T06:48:35.716Z,5.10
2019-02-17T06:49:36.721Z,5.20
2019-02-17T06:50:37.737Z,5.20
2019-02-17T06:51:38.749Z,5.20
2019-02-17T06:52:39.788Z,5.30
2019-02-17T06:53:40.802Z,5.30
2019-02-17T06:54:43.712Z,5.40
2019-02-17T06:55:46.633Z,5.40
2019-02-17T06:56:58.569Z,5.40
2019-02-17T06:57:59.606Z,5.40
2019-02-17T06:59:00.617Z,5.40
2019-02-17T07:00:07.616Z,5.40
2019-02-17T07:01:08.630Z,5.30
2019-02-17T07:02:09.654Z,5.30
2019-02-17T07:03:10.678Z,5.30
2019-02-17T07:04:11.727Z,5.20
2019-02-17T07:05:20.331Z,5.20
2019-02-17T07:06:26.136Z,5.20
2019-02-17T07:07:29.014Z,5.20
2019-02-17T07:08:30.159Z,5.30
2019-02-17T07:09:31.172Z,5.20
2019-02-17T07:10:32.186Z,5.20
2019-02-17T07:11:33.200Z,5.20
2019-02-17T07:12:34.572Z,5.20
2019-02-17T07:13:35.630Z,5.20
2019-02-17T07:14:38.367Z,5.30
2019-02-17T07:15:39.569Z,5.20
2019-02-17T07:16:40.580Z,5.30
2019-02-17T07:17:41.601Z,5.30
2019-02-17T07:18:42.660Z,5.30
2019-02-17T07:19:43.901Z,5.30
2019-02-17T07:20:45.071Z,5.20
2019-02-17T07:21:46.095Z,5.20
2019-02-17T07:22:47.103Z,5.30
2019-02-17T07:23:48.158Z,5.30
2019-02-17T07:24:49.172Z,5.30
2019-02-17T07:25:50.185Z,5.30
2019-02-17T07:26:51.201Z,5.30
2019-02-17T07:27:52.212Z,5.40
2019-02-17T07:28:53.244Z,5.40
2019-02-17T07:29:54.255Z,5.40
2019-02-17T07:30:55.297Z,5.50
2019-02-17T07:31:56.316Z,5.50
2019-02-17T07:32:57.332Z,5.50
2019-02-17T07:33:58.423Z,5.50
2019-02-17T07:34:59.825Z,5.60
2019-02-17T07:36:00.916Z,5.60
2019-02-17T07:37:01.964Z,5.60
2019-02-17T07:38:02.980Z,5.60
2019-02-17T07:39:04.847Z,5.70
2019-02-17T07:40:06.174Z,5.70
2019-02-17T07:41:07.179Z,5.70
2019-02-17T07:42:09.678Z,5.70
2019-02-17T07:43:10.981Z,5.70
2019-02-17T07:44:11.996Z,5.70
2019-02-17T07:45:13.042Z,5.70
2019-02-17T07:46:14.054Z,5.80
2019-02-17T07:47:15.061Z,5.80
2019-02-17T07:48:16.109Z,5.80
2019-02-17T07:49:17.123Z,5.80
2019-02-17T07:50:18.149Z,5.90
2019-02-17T07:51:19.159Z,5.80
2019-02-17T07:52:20.179Z,5.90
2019-02-17T07:53:21.201Z,5.90
2019-02-17T07:54:22.216Z,5.90
2019-02-17T07:55:23.227Z,5.80
2019-02-17T07:56:24.260Z,5.90
2019-02-17T07:57:25.273Z,5.90
2019-02-17T07:58:26.301Z,5.90
2019-02-17T07:59:27.308Z,5.90
2019-02-17T08:00:28.312Z,5.90
2019-02-17T08:01:29.328Z,5.90
2019-02-17T08:02:30.348Z,6.00
2019-02-17T08:03:31.381Z,6.00
2019-02-17T08:04:32.436Z,6.00
2019-02-17T08:05:33.492Z,6.00
2019-02-17T08:06:34.500Z,6.00
2019-02-17T08:07:35.556Z,6.00
2019-02-17T08:08:36.584Z,6.00
2019-02-17T08:09:37.843Z,5.90
2019-02-17T08:10:38.880Z,5.80
2019-02-17T08:11:39.889Z,5.80
2019-02-17T08:12:40.894Z,5.70
2019-02-17T08:13:41.956Z,5.70
2019-02-17T08:14:43.032Z,5.70
2019-02-17T08:15:44.084Z,5.70
2019-02-17T08:16:45.096Z,5.60
2019-02-17T08:17:46.121Z,5.70
2019-02-17T08:18:47.147Z,5.60
2019-02-17T08:19:48.188Z,5.70
2019-02-17T08:20:49.539Z,5.70
2019-02-17T08:21:50.579Z,5.70
2019-02-17T08:22:51.690Z,5.70
2019-02-17T08:23:52.704Z,5.80
2019-02-17T08:24:53.717Z,5.80
2019-02-17T08:25:54.728Z,5.90
2019-02-17T08:26:55.756Z,5.90
2019-02-17T08:27:56.823Z,5.90
2019-02-17T08:28:57.907Z,5.90
2019-02-17T08:29:58.912Z,5.90
2019-02-17T08:30:59.936Z,5.90
2019-02-17T08:32:00.984Z,6.00
2019-02-17T08:33:02.404Z,6.00
2019-02-17T08:34:03.425Z,6.00
2019-02-17T08:35:05.041Z,6.00
2019-02-17T08:36:06.077Z,6.00
2019-02-17T08:37:07.084Z,6.00
2019-02-17T08:38:08.100Z,6.00
2019-02-17T08:39:09.124Z,6.00
2019-02-17T08:40:10.157Z,6.00
2019-02-17T08:41:11.469Z,6.00
2019-02-17T08:42:12.476Z,6.00
2019-02-17T08:43:13.498Z,6.10
2019-02-17T08:44:14.532Z,6.10
2019-02-17T08:45:15.546Z,6.10
2019-02-17T08:46:16.555Z,6.10
2019-02-17T08:47:17.577Z,6.10
2019-02-17T08:48:18.592Z,6.20
2019-02-17T08:49:19.661Z,6.30
2019-02-17T08:50:20.754Z,6.30
2019-02-17T08:51:21.768Z,6.30
2019-02-17T08:52:22.844Z,6.30
2019-02-17T08:53:24.062Z,6.30
2019-02-17T08:54:25.080Z,6.40
2019-02-17T08:55:26.088Z,6.40
2019-02-17T08:56:27.100Z,6.30
2019-02-17T08:57:28.132Z,6.40
2019-02-17T08:58:29.148Z,6.40
2019-02-17T08:59:30.428Z,6.40
2019-02-17T09:00:31.468Z,6.40
2019-02-17T09:01:32.509Z,6.40
2019-02-17T09:02:33.524Z,6.50
2019-02-17T09:03:34.539Z,6.50
2019-02-17T09:04:35.565Z,6.50
2019-02-17T09:05:43.770Z,6.50
2019-02-17T09:06:39.496Z,6.60
2019-02-17T09:07:40.554Z,6.60
2019-02-17T09:08:41.640Z,6.70
2019-02-17T09:09:42.688Z,6.70
2019-02-17T09:10:43.685Z,6.80
2019-02-17T09:11:44.725Z,6.80
2019-02-17T09:12:45.776Z,6.80
2019-02-17T09:13:46.828Z,6.80
2019-02-17T09:14:48.015Z,6.90
2019-02-17T09:15:49.088Z,6.90
2019-02-17T09:16:50.104Z,7.00
2019-02-17T09:17:51.132Z,7.00
2019-02-17T09:18:52.152Z,7.10
2019-02-17T09:19:53.184Z,7.10
2019-02-17T09:20:54.268Z,7.20
2019-02-17T09:21:55.293Z,7.20
2019-02-17T09:22:56.308Z,7.30
2019-02-17T09:23:57.328Z,7.30
2019-02-17T09:24:58.351Z,7.30
2019-02-17T09:25:59.377Z,7.30
2019-02-17T09:27:00.412Z,7.30
2019-02-17T09:28:01.446Z,7.40
2019-02-17T09:29:02.452Z,7.40
2019-02-17T09:30:07.286Z,7.40
2019-02-17T09:31:08.296Z,7.40
2019-02-17T09:32:16.021Z,7.50
2019-02-17T09:33:12.236Z,7.50
2019-02-17T09:34:13.272Z,7.60
2019-02-17T09:35:14.297Z,7.60
2019-02-17T09:36:15.304Z,7.60
2019-02-17T09:37:16.357Z,7.70
2019-02-17T09:38:17.393Z,7.70
2019-02-17T09:39:18.404Z,7.70
2019-02-17T09:40:19.434Z,7.70
2019-02-17T09:41:20.484Z,7.80
2019-02-17T09:42:21.517Z,7.80
2019-02-17T09:43:22.573Z,7.90
2019-02-17T09:44:23.609Z,7.90
2019-02-17T09:45:24.640Z,7.90
2019-02-17T09:46:25.673Z,8.00
2019-02-17T09:47:26.712Z,8.00
2019-02-17T09:48:28.133Z,8.10
2019-02-17T09:49:29.242Z,8.10
2019-02-17T09:50:30.302Z,8.20
2019-02-17T09:51:31.317Z,8.20
2019-02-17T09:52:32.329Z,8.30
2019-02-17T09:53:33.339Z,8.30
2019-02-17T09:54:34.355Z,8.40
2019-02-17T09:55:35.385Z,8.40
2019-02-17T09:56:36.421Z,8.50
2019-02-17T09:57:38.641Z,8.60
2019-02-17T09:58:39.667Z,8.60
2019-02-17T09:59:40.673Z,8.60
2019-02-17T10:00:41.999Z,8.70
2019-02-17T10:01:43.016Z,8.70
2019-02-17T10:02:44.916Z,8.80
2019-02-17T10:03:46.007Z,8.80
2019-02-17T10:04:47.036Z,8.90
2019-02-17T10:05:48.090Z,9.00
2019-02-17T10:06:49.408Z,9.00
2019-02-17T10:07:51.337Z,9.10
2019-02-17T10:08:52.561Z,9.20
2019-02-17T10:09:53.573Z,9.20
2019-02-17T10:10:54.600Z,9.30
2019-02-17T10:11:55.625Z,9.30
2019-02-17T10:12:56.628Z,9.40
2019-02-17T10:13:57.789Z,9.40
2019-02-17T10:14:58.890Z,9.50
2019-02-17T10:15:59.920Z,9.60
2019-02-17T10:17:00.936Z,9.60
2019-02-17T10:18:02.017Z,9.70
2019-02-17T10:19:03.028Z,9.70
2019-02-17T10:20:07.155Z,9.80
2019-02-17T10:21:08.203Z,9.80
2019-02-17T10:22:09.326Z,9.80
2019-02-17T10:23:10.380Z,9.80
2019-02-17T10:24:11.392Z,9.90
2019-02-17T10:25:12.435Z,9.90
2019-02-17T10:26:13.534Z,10.00
2019-02-17T10:27:14.596Z,10.00
2019-02-17T10:28:15.664Z,10.00
2019-02-17T10:29:16.694Z,10.10
2019-02-17T10:30:17.703Z,10.10
2019-02-17T10:31:18.727Z,10.20
2019-02-17T10:32:19.750Z,10.20
2019-02-17T10:33:20.810Z,10.20
2019-02-17T10:34:21.919Z,10.30
2019-02-17T10:35:22.923Z,10.30
2019-02-17T10:36:23.980Z,10.40
2019-02-17T10:37:25.080Z,10.50
2019-02-17T10:38:26.116Z,10.50
2019-02-17T10:39:27.182Z,10.60
2019-02-17T10:40:28.245Z,10.60
2019-02-17T10:41:29.308Z,10.70
2019-02-17T10:42:30.359Z,10.70
2019-02-17T10:43:31.363Z,10.70
2019-02-17T10:44:32.433Z,10.70
2019-02-17T10:45:33.516Z,10.70
2019-02-17T10:46:34.553Z,10.80
2019-02-17T10:47:35.587Z,10.80
2019-02-17T10:48:36.597Z,10.80
2019-02-17T10:49:37.616Z,10.90
2019-02-17T10:50:38.644Z,10.90
2019-02-17T10:51:39.681Z,11.00
2019-02-17T10:52:40.726Z,11.00
2019-02-17T10:53:41.743Z,11.10
2019-02-17T10:54:42.758Z,11.10
2019-02-17T10:55:43.848Z,11.20
2019-02-17T10:56:44.861Z,11.20
2019-02-17T10:57:45.895Z,11.30
2019-02-17T10:58:46.920Z,11.30
2019-02-17T10:59:48.028Z,11.30
2019-02-17T11:00:49.062Z,11.40
2019-02-17T11:01:50.097Z,11.40
2019-02-17T11:02:51.121Z,11.40
2019-02-17T11:04:06.503Z,11.40
2019-02-17T11:05:09.256Z,11.40
2019-02-17T11:06:10.281Z,11.50
2019-02-17T11:07:11.305Z,11.50
2019-02-17T11:08:12.332Z,11.60
2019-02-17T11:09:15.241Z,11.60
2019-02-17T11:10:16.254Z,11.70
2019-02-17T11:11:17.272Z,11.70
2019-02-17T11:12:18.320Z,11.80
2019-02-17T11:13:19.369Z,11.80
2019-02-17T11:14:20.439Z,11.90
2019-02-17T11:15:22.775Z,11.90
2019-02-17T11:16:23.808Z,12.00
2019-02-17T11:17:24.853Z,12.00
2019-02-17T11:18:25.892Z,12.00
2019-02-17T11:19:26.900Z,12.00
2019-02-17T11:20:27.945Z,12.00
2019-02-17T11:21:28.985Z,12.10
2019-02-17T11:22:30.000Z,12.20
2019-02-17T11:23:31.009Z,12.20
2019-02-17T11:24:32.090Z,12.20
2019-02-17T11:25:33.113Z,12.30
2019-02-17T11:26:34.372Z,12.40
2019-02-17T11:27:35.404Z,12.40
2019-02-17T11:28:36.433Z,12.50
2019-02-17T11:29:37.448Z,12.50
2019-02-17T11:30:38.480Z,12.60
2019-02-17T11:31:39.501Z,12.70
2019-02-17T11:32:40.828Z,12.70
2019-02-17T11:33:41.873Z,12.70
2019-02-17T11:34:42.884Z,12.80
2019-02-17T11:35:43.932Z,12.80
2019-02-17T11:36:45.032Z,12.90
2019-02-17T11:37:46.053Z,12.90
2019-02-17T11:38:47.070Z,13.00
2019-02-17T11:39:48.208Z,13.00
2019-02-17T11:40:49.549Z,13.10
2019-02-17T11:41:50.560Z,13.00
2019-02-17T11:42:51.585Z,13.10
2019-02-17T11:43:52.638Z,13.20
2019-02-17T11:44:53.645Z,13.20
2019-02-17T11:45:54.770Z,13.30
2019-02-17T11:46:55.792Z,13.30
2019-02-17T11:47:56.864Z,13.40
2019-02-17T11:48:57.964Z,13.40
2019-02-17T11:49:58.981Z,13.40
2019-02-17T11:50:59.985Z,13.50
2019-02-17T11:52:00.997Z,13.50
2019-02-17T11:53:02.060Z,13.60
2019-02-17T11:54:03.071Z,13.60
2019-02-17T11:55:09.575Z,13.70
2019-02-17T11:56:10.593Z,13.70
2019-02-17T11:57:11.612Z,13.80
2019-02-17T11:58:12.639Z,13.80
2019-02-17T11:59:13.661Z,13.90
2019-02-17T12:00:19.838Z,13.90
2019-02-17T12:01:20.863Z,14.00
2019-02-17T12:02:24.841Z,14.00
2019-02-17T12:03:24.821Z,14.00
2019-02-17T12:04:25.838Z,14.10
2019-02-17T12:05:26.856Z,14.10
2019-02-17T12:06:27.876Z,14.10
2019-02-17T12:07:28.949Z,14.20
2019-02-17T12:08:29.979Z,14.20
2019-02-17T12:09:30.993Z,14.20
2019-02-17T12:10:33.204Z,14.30
2019-02-17T12:11:34.249Z,14.30
2019-02-17T12:12:35.315Z,14.40
2019-02-17T12:13:36.336Z,14.40
2019-02-17T12:14:37.347Z,14.40
2019-02-17T12:15:38.363Z,14.50
2019-02-17T12:16:39.380Z,14.50
2019-02-17T12:17:40.522Z,14.50
2019-02-17T12:18:41.537Z,14.60
2019-02-17T12:19:42.540Z,14.60
2019-02-17T12:20:51.492Z,14.70
2019-02-17T12:21:54.442Z,14.70
2019-02-17T12:22:57.372Z,14.80
2019-02-17T12:24:11.948Z,14.80
2019-02-17T12:25:12.955Z,14.90
2019-02-17T12:26:21.897Z,14.90
2019-02-17T12:27:27.324Z,14.90
2019-02-17T12:28:39.044Z,15.00
2019-02-17T12:29:41.969Z,15.00
2019-02-17T12:30:44.281Z,15.00
2019-02-17T12:31:45.391Z,15.10
2019-02-17T12:32:46.436Z,15.10
2019-02-17T12:33:47.462Z,15.20
2019-02-17T12:34:48.472Z,15.20
2019-02-17T12:35:49.503Z,15.30
2019-02-17T12:36:50.527Z,15.30
2019-02-17T12:37:51.540Z,15.40
2019-02-17T12:38:52.568Z,15.40
2019-02-17T12:39:53.583Z,15.40
2019-02-17T12:40:54.597Z,15.50
2019-02-17T12:41:55.614Z,15.50
2019-02-17T12:42:56.632Z,15.50
2019-02-17T12:43:57.648Z,15.60
2019-02-17T12:44:58.676Z,15.60
2019-02-17T12:45:59.684Z,15.60
2019-02-17T12:47:00.733Z,15.70
2019-02-17T12:48:01.884Z,15.70
2019-02-17T12:49:02.925Z,15.70
2019-02-17T12:50:07.159Z,15.70
2019-02-17T12:51:08.144Z,15.80
2019-02-17T12:52:09.184Z,15.80
2019-02-17T12:53:10.368Z,15.80
2019-02-17T12:54:11.383Z,15.90
2019-02-17T12:55:12.406Z,15.90
2019-02-17T12:56:14.139Z,15.90
2019-02-17T12:57:15.258Z,16.00
2019-02-17T12:58:16.269Z,16.10
2019-02-17T12:59:17.284Z,16.10
2019-02-17T13:00:18.375Z,16.20
2019-02-17T13:01:19.453Z,16.20
2019-02-17T13:02:20.528Z,16.30
2019-02-17T13:03:28.312Z,16.30
2019-02-17T13:04:24.647Z,16.30
2019-02-17T13:05:25.699Z,16.40
2019-02-17T13:06:26.800Z,16.40
2019-02-17T13:07:27.841Z,16.40
2019-02-17T13:08:28.884Z,16.40
2019-02-17T13:09:29.897Z,16.50
2019-02-17T13:10:30.961Z,16.50
2019-02-17T13:11:31.988Z,16.50
2019-02-17T13:12:33.056Z,16.60
2019-02-17T13:13:34.080Z,16.60
2019-02-17T13:14:35.099Z,16.70
2019-02-17T13:15:36.169Z,16.70
2019-02-17T13:16:37.161Z,16.70
2019-02-17T13:17:38.172Z,16.80
2019-02-17T13:18:39.196Z,16.80
2019-02-17T13:19:41.401Z,16.80
2019-02-17T13:20:42.545Z,16.90
2019-02-17T13:21:43.552Z,17.00
2019-02-17T13:22:44.639Z,17.00
2019-02-17T13:23:45.732Z,17.10
2019-02-17T13:24:47.019Z,17.10
2019-02-17T13:25:48.153Z,17.10
2019-02-17T13:26:49.164Z,17.10
2019-02-17T13:27:50.181Z,17.20
2019-02-17T13:28:51.250Z,17.20
2019-02-17T13:29:52.325Z,17.30